sensor_id;sensor_type;location;lat;lon;timestamp;P1;durP1;ratioP1;P2;durP2;ratioP2
31182;SDS011;17813;0.000;0.000;2024-01-06T00:01:39;11.37;;;7.63;;
31182;SDS011;17813;0.000;0.000;2024-01-06T00:04:28;11.30;;;7.43;;
31182;SDS011;17813;0.000;0.000;2024-01-06T00:06:56;10.60;;;7.70;;
31182;SDS011;17813;0.000;0.000;2024-01-06T00:09:24;10.53;;;8.30;;
31182;SDS011;17813;0.000;0.000;2024-01-06T00:12:14;11.53;;;8.40;;
31182;SDS011;17813;0.000;0.000;2024-01-06T00:15:02;12.33;;;9.10;;
31182;SDS011;17813;0.000;0.000;2024-01-06T00:17:45;14.93;;;9.70;;
31182;SDS011;17813;0.000;0.000;2024-01-06T00:20:30;13.83;;;9.20;;
31182;SDS011;17813;0.000;0.000;2024-01-06T00:22:58;12.00;;;8.70;;
31182;SDS011;17813;0.000;0.000;2024-01-06T00:25:26;12.77;;;8.67;;
31182;SDS011;17813;0.000;0.000;2024-01-06T00:28:10;10.73;;;7.90;;
31182;SDS011;17813;0.000;0.000;2024-01-06T00:30:53;10.43;;;7.63;;
31182;SDS011;17813;0.000;0.000;2024-01-06T00:33:38;10.33;;;7.33;;
31182;SDS011;17813;0.000;0.000;2024-01-06T00:36:20;10.13;;;7.80;;
31182;SDS011;17813;0.000;0.000;2024-01-06T00:39:06;11.43;;;8.20;;
31182;SDS011;17813;0.000;0.000;2024-01-06T00:42:00;12.47;;;8.50;;
31182;SDS011;17813;0.000;0.000;2024-01-06T00:44:28;12.30;;;8.57;;
31182;SDS011;17813;0.000;0.000;2024-01-06T00:47:31;10.50;;;8.17;;
31182;SDS011;17813;0.000;0.000;2024-01-06T00:50:22;12.30;;;7.97;;
31182;SDS011;17813;0.000;0.000;2024-01-06T00:53:03;9.67;;;7.27;;
31182;SDS011;17813;0.000;0.000;2024-01-06T00:55:54;11.13;;;7.73;;
31182;SDS011;17813;0.000;0.000;2024-01-06T00:58:39;8.93;;;7.70;;
31182;SDS011;17813;0.000;0.000;2024-01-06T01:01:24;9.23;;;6.73;;
31182;SDS011;17813;0.000;0.000;2024-01-06T01:03:52;8.53;;;6.53;;
31182;SDS011;17813;0.000;0.000;2024-01-06T01:06:37;8.90;;;6.80;;
31182;SDS011;17813;0.000;0.000;2024-01-06T01:09:20;11.57;;;7.70;;
31182;SDS011;17813;0.000;0.000;2024-01-06T01:12:06;11.63;;;7.87;;
31182;SDS011;17813;0.000;0.000;2024-01-06T01:14:34;8.87;;;7.03;;
31182;SDS011;17813;0.000;0.000;2024-01-06T01:17:04;19.97;;;7.60;;
31182;SDS011;17813;0.000;0.000;2024-01-06T01:19:44;10.37;;;7.23;;
31182;SDS011;17813;0.000;0.000;2024-01-06T01:22:13;9.13;;;7.50;;
31182;SDS011;17813;0.000;0.000;2024-01-06T01:25:03;10.37;;;7.33;;
31182;SDS011;17813;0.000;0.000;2024-01-06T01:27:57;11.73;;;7.60;;
31182;SDS011;17813;0.000;0.000;2024-01-06T01:30:24;19.77;;;7.33;;
31182;SDS011;17813;0.000;0.000;2024-01-06T01:33:02;17.77;;;8.00;;
31182;SDS011;17813;0.000;0.000;2024-01-06T01:35:53;8.13;;;6.50;;
31182;SDS011;17813;0.000;0.000;2024-01-06T01:38:39;7.27;;;5.70;;
31182;SDS011;17813;0.000;0.000;2024-01-06T01:41:39;6.27;;;5.40;;
31182;SDS011;17813;0.000;0.000;2024-01-06T01:44:29;6.60;;;5.23;;
31182;SDS011;17813;0.000;0.000;2024-01-06T01:46:56;7.90;;;5.77;;
31182;SDS011;17813;0.000;0.000;2024-01-06T01:49:43;7.97;;;5.53;;
31182;SDS011;17813;0.000;0.000;2024-01-06T01:52:26;7.30;;;5.10;;
31182;SDS011;17813;0.000;0.000;2024-01-06T01:54:56;8.10;;;5.30;;
31182;SDS011;17813;0.000;0.000;2024-01-06T01:57:24;6.87;;;5.10;;
31182;SDS011;17813;0.000;0.000;2024-01-06T02:00:11;6.27;;;4.97;;
31182;SDS011;17813;0.000;0.000;2024-01-06T02:02:59;6.47;;;5.30;;
31182;SDS011;17813;0.000;0.000;2024-01-06T02:05:36;13.63;;;6.33;;
31182;SDS011;17813;0.000;0.000;2024-01-06T02:08:21;11.30;;;7.00;;
31182;SDS011;17813;0.000;0.000;2024-01-06T02:11:01;12.67;;;8.23;;
31182;SDS011;17813;0.000;0.000;2024-01-06T02:13:45;9.40;;;6.90;;
31182;SDS011;17813;0.000;0.000;2024-01-06T02:16:13;8.07;;;6.97;;
31182;SDS011;17813;0.000;0.000;2024-01-06T02:18:58;9.93;;;6.83;;
31182;SDS011;17813;0.000;0.000;2024-01-06T02:21:49;11.33;;;7.20;;
31182;SDS011;17813;0.000;0.000;2024-01-06T02:24:28;8.93;;;6.27;;
31182;SDS011;17813;0.000;0.000;2024-01-06T02:27:12;8.07;;;6.73;;
31182;SDS011;17813;0.000;0.000;2024-01-06T02:29:40;11.83;;;7.27;;
31182;SDS011;17813;0.000;0.000;2024-01-06T02:32:26;10.13;;;6.50;;
31182;SDS011;17813;0.000;0.000;2024-01-06T02:34:54;9.77;;;6.63;;
31182;SDS011;17813;0.000;0.000;2024-01-06T02:37:42;8.83;;;6.20;;
31182;SDS011;17813;0.000;0.000;2024-01-06T02:40:17;7.67;;;6.60;;
31182;SDS011;17813;0.000;0.000;2024-01-06T02:42:44;9.53;;;6.47;;
31182;SDS011;17813;0.000;0.000;2024-01-06T02:45:11;8.20;;;6.27;;
31182;SDS011;17813;0.000;0.000;2024-01-06T02:47:53;14.53;;;6.97;;
31182;SDS011;17813;0.000;0.000;2024-01-06T02:50:32;8.63;;;6.40;;
31182;SDS011;17813;0.000;0.000;2024-01-06T02:53:13;7.90;;;6.40;;
31182;SDS011;17813;0.000;0.000;2024-01-06T02:55:42;10.00;;;6.63;;
31182;SDS011;17813;0.000;0.000;2024-01-06T02:58:10;9.10;;;6.70;;
31182;SDS011;17813;0.000;0.000;2024-01-06T03:00:53;9.60;;;6.10;;
31182;SDS011;17813;0.000;0.000;2024-01-06T03:03:37;6.30;;;5.27;;
31182;SDS011;17813;0.000;0.000;2024-01-06T03:06:24;11.77;;;6.00;;
31182;SDS011;17813;0.000;0.000;2024-01-06T03:09:05;8.07;;;5.70;;
31182;SDS011;17813;0.000;0.000;2024-01-06T03:11:44;6.77;;;5.40;;
31182;SDS011;17813;0.000;0.000;2024-01-06T03:14:12;7.90;;;5.80;;
31182;SDS011;17813;0.000;0.000;2024-01-06T03:16:56;7.13;;;6.13;;
31182;SDS011;17813;0.000;0.000;2024-01-06T03:19:43;9.27;;;6.33;;
31182;SDS011;17813;0.000;0.000;2024-01-06T03:22:11;11.73;;;6.20;;
31182;SDS011;17813;0.000;0.000;2024-01-06T03:24:39;9.43;;;6.40;;
31182;SDS011;17813;0.000;0.000;2024-01-06T03:27:20;7.00;;;5.93;;
31182;SDS011;17813;0.000;0.000;2024-01-06T03:29:50;9.47;;;6.67;;
31182;SDS011;17813;0.000;0.000;2024-01-06T03:32:18;7.97;;;7.07;;
31182;SDS011;17813;0.000;0.000;2024-01-06T03:35:00;9.90;;;7.27;;
31182;SDS011;17813;0.000;0.000;2024-01-06T03:37:46;9.13;;;7.17;;
31182;SDS011;17813;0.000;0.000;2024-01-06T03:40:31;9.63;;;6.63;;
31182;SDS011;17813;0.000;0.000;2024-01-06T03:43:02;9.70;;;7.00;;
31182;SDS011;17813;0.000;0.000;2024-01-06T03:45:33;9.00;;;6.30;;
31182;SDS011;17813;0.000;0.000;2024-01-06T03:48:01;9.63;;;6.27;;
31182;SDS011;17813;0.000;0.000;2024-01-06T03:50:52;7.80;;;6.13;;
31182;SDS011;17813;0.000;0.000;2024-01-06T03:53:39;7.77;;;5.90;;
31182;SDS011;17813;0.000;0.000;2024-01-06T03:56:09;6.90;;;5.50;;
31182;SDS011;17813;0.000;0.000;2024-01-06T03:58:47;8.30;;;5.63;;
31182;SDS011;17813;0.000;0.000;2024-01-06T04:01:33;7.47;;;5.90;;
31182;SDS011;17813;0.000;0.000;2024-01-06T04:04:12;7.40;;;5.90;;
31182;SDS011;17813;0.000;0.000;2024-01-06T04:06:58;7.60;;;5.40;;
31182;SDS011;17813;0.000;0.000;2024-01-06T04:09:27;6.30;;;5.33;;
31182;SDS011;17813;0.000;0.000;2024-01-06T04:11:57;8.10;;;5.57;;
31182;SDS011;17813;0.000;0.000;2024-01-06T04:14:25;6.27;;;5.20;;
31182;SDS011;17813;0.000;0.000;2024-01-06T04:17:15;7.67;;;5.63;;
31182;SDS011;17813;0.000;0.000;2024-01-06T04:19:59;7.67;;;5.53;;
31182;SDS011;17813;0.000;0.000;2024-01-06T04:22:28;6.10;;;5.40;;
31182;SDS011;17813;0.000;0.000;2024-01-06T04:24:58;8.97;;;6.13;;
31182;SDS011;17813;0.000;0.000;2024-01-06T04:27:34;6.87;;;5.60;;
31182;SDS011;17813;0.000;0.000;2024-01-06T04:30:19;7.73;;;6.00;;
31182;SDS011;17813;0.000;0.000;2024-01-06T04:33:00;7.73;;;6.00;;
31182;SDS011;17813;0.000;0.000;2024-01-06T04:35:45;10.30;;;6.10;;
31182;SDS011;17813;0.000;0.000;2024-01-06T04:38:33;6.80;;;5.87;;
31182;SDS011;17813;0.000;0.000;2024-01-06T04:41:17;6.60;;;5.43;;
31182;SDS011;17813;0.000;0.000;2024-01-06T04:44:00;8.20;;;5.73;;
31182;SDS011;17813;0.000;0.000;2024-01-06T04:46:29;7.97;;;5.50;;
31182;SDS011;17813;0.000;0.000;2024-01-06T04:48:56;6.57;;;5.67;;
31182;SDS011;17813;0.000;0.000;2024-01-06T04:51:36;8.13;;;5.57;;
31182;SDS011;17813;0.000;0.000;2024-01-06T04:54:04;6.63;;;5.60;;
31182;SDS011;17813;0.000;0.000;2024-01-06T04:56:32;7.00;;;5.20;;
31182;SDS011;17813;0.000;0.000;2024-01-06T04:58:59;6.20;;;5.13;;
31182;SDS011;17813;0.000;0.000;2024-01-06T05:01:52;6.13;;;5.20;;
31182;SDS011;17813;0.000;0.000;2024-01-06T05:04:41;7.63;;;5.63;;
31182;SDS011;17813;0.000;0.000;2024-01-06T05:07:33;5.90;;;5.27;;
31182;SDS011;17813;0.000;0.000;2024-01-06T05:10:02;8.37;;;5.63;;
31182;SDS011;17813;0.000;0.000;2024-01-06T05:12:30;6.43;;;5.57;;
31182;SDS011;17813;0.000;0.000;2024-01-06T05:14:59;7.30;;;6.20;;
31182;SDS011;17813;0.000;0.000;2024-01-06T05:17:28;6.67;;;5.80;;
31182;SDS011;17813;0.000;0.000;2024-01-06T05:20:18;9.10;;;6.20;;
31182;SDS011;17813;0.000;0.000;2024-01-06T05:23:07;8.30;;;5.90;;
31182;SDS011;17813;0.000;0.000;2024-01-06T05:25:36;10.90;;;5.90;;
31182;SDS011;17813;0.000;0.000;2024-01-06T05:28:09;8.03;;;5.67;;
31182;SDS011;17813;0.000;0.000;2024-01-06T05:30:36;7.53;;;6.10;;
31182;SDS011;17813;0.000;0.000;2024-01-06T05:33:28;7.50;;;5.73;;
31182;SDS011;17813;0.000;0.000;2024-01-06T05:36:10;6.83;;;5.63;;
31182;SDS011;17813;0.000;0.000;2024-01-06T05:38:56;6.70;;;5.57;;
31182;SDS011;17813;0.000;0.000;2024-01-06T05:41:42;7.27;;;5.53;;
31182;SDS011;17813;0.000;0.000;2024-01-06T05:44:11;7.40;;;5.67;;
31182;SDS011;17813;0.000;0.000;2024-01-06T05:46:38;7.37;;;5.50;;
31182;SDS011;17813;0.000;0.000;2024-01-06T05:49:07;7.87;;;5.80;;
31182;SDS011;17813;0.000;0.000;2024-01-06T05:51:36;7.33;;;5.53;;
31182;SDS011;17813;0.000;0.000;2024-01-06T05:54:19;9.03;;;5.83;;
31182;SDS011;17813;0.000;0.000;2024-01-06T05:56:48;7.67;;;5.77;;
31182;SDS011;17813;0.000;0.000;2024-01-06T05:59:15;8.70;;;6.50;;
31182;SDS011;17813;0.000;0.000;2024-01-06T06:02:08;13.53;;;7.17;;
31182;SDS011;17813;0.000;0.000;2024-01-06T06:04:37;9.83;;;6.90;;
31182;SDS011;17813;0.000;0.000;2024-01-06T06:07:26;7.33;;;6.60;;
31182;SDS011;17813;0.000;0.000;2024-01-06T06:09:56;7.87;;;6.20;;
31182;SDS011;17813;0.000;0.000;2024-01-06T06:12:39;8.13;;;6.73;;
31182;SDS011;17813;0.000;0.000;2024-01-06T06:15:10;9.33;;;7.37;;
31182;SDS011;17813;0.000;0.000;2024-01-06T06:17:38;8.47;;;7.37;;
31182;SDS011;17813;0.000;0.000;2024-01-06T06:20:25;10.27;;;7.80;;
31182;SDS011;17813;0.000;0.000;2024-01-06T06:23:00;11.83;;;8.00;;
31182;SDS011;17813;0.000;0.000;2024-01-06T06:25:29;9.63;;;7.90;;
31182;SDS011;17813;0.000;0.000;2024-01-06T06:27:57;9.07;;;7.50;;
31182;SDS011;17813;0.000;0.000;2024-01-06T06:30:25;11.07;;;7.50;;
31182;SDS011;17813;0.000;0.000;2024-01-06T06:32:52;11.17;;;7.43;;
31182;SDS011;17813;0.000;0.000;2024-01-06T06:35:31;8.27;;;6.83;;
31182;SDS011;17813;0.000;0.000;2024-01-06T06:38:10;8.20;;;6.97;;
31182;SDS011;17813;0.000;0.000;2024-01-06T06:40:39;9.13;;;6.93;;
31182;SDS011;17813;0.000;0.000;2024-01-06T06:43:06;9.10;;;7.60;;
31182;SDS011;17813;0.000;0.000;2024-01-06T06:45:36;9.27;;;7.50;;
31182;SDS011;17813;0.000;0.000;2024-01-06T06:48:14;10.03;;;7.90;;
31182;SDS011;17813;0.000;0.000;2024-01-06T06:50:44;10.53;;;7.43;;
31182;SDS011;17813;0.000;0.000;2024-01-06T06:53:30;11.50;;;8.13;;
31182;SDS011;17813;0.000;0.000;2024-01-06T06:56:03;8.13;;;6.97;;
31182;SDS011;17813;0.000;0.000;2024-01-06T06:58:49;9.20;;;6.60;;
31182;SDS011;17813;0.000;0.000;2024-01-06T07:01:34;10.20;;;6.90;;
31182;SDS011;17813;0.000;0.000;2024-01-06T07:04:03;7.37;;;6.57;;
31182;SDS011;17813;0.000;0.000;2024-01-06T07:06:51;9.37;;;6.90;;
31182;SDS011;17813;0.000;0.000;2024-01-06T07:09:32;8.93;;;7.07;;
31182;SDS011;17813;0.000;0.000;2024-01-06T07:12:03;10.37;;;7.23;;
31182;SDS011;17813;0.000;0.000;2024-01-06T07:14:30;9.67;;;7.93;;
31182;SDS011;17813;0.000;0.000;2024-01-06T07:17:13;10.83;;;7.67;;
31182;SDS011;17813;0.000;0.000;2024-01-06T07:20:12;15.67;;;9.77;;
31182;SDS011;17813;0.000;0.000;2024-01-06T07:22:39;13.13;;;9.63;;
31182;SDS011;17813;0.000;0.000;2024-01-06T07:25:15;10.77;;;7.93;;
31182;SDS011;17813;0.000;0.000;2024-01-06T07:28:03;8.57;;;6.83;;
31182;SDS011;17813;0.000;0.000;2024-01-06T07:30:48;9.43;;;7.00;;
31182;SDS011;17813;0.000;0.000;2024-01-06T07:33:16;8.53;;;6.67;;
31182;SDS011;17813;0.000;0.000;2024-01-06T07:35:47;12.30;;;7.60;;
31182;SDS011;17813;0.000;0.000;2024-01-06T07:38:23;9.80;;;7.23;;
31182;SDS011;17813;0.000;0.000;2024-01-06T07:41:08;12.37;;;8.10;;
31182;SDS011;17813;0.000;0.000;2024-01-06T07:43:49;10.77;;;7.53;;
31182;SDS011;17813;0.000;0.000;2024-01-06T07:46:31;12.83;;;8.93;;
31182;SDS011;17813;0.000;0.000;2024-01-06T07:49:13;14.30;;;8.37;;
31182;SDS011;17813;0.000;0.000;2024-01-06T07:51:56;8.90;;;7.70;;
31182;SDS011;17813;0.000;0.000;2024-01-06T07:54:38;10.47;;;7.13;;
31182;SDS011;17813;0.000;0.000;2024-01-06T07:57:07;10.13;;;7.60;;
31182;SDS011;17813;0.000;0.000;2024-01-06T07:59:35;10.30;;;7.00;;
31182;SDS011;17813;0.000;0.000;2024-01-06T08:02:11;9.80;;;7.30;;
31182;SDS011;17813;0.000;0.000;2024-01-06T08:05:03;8.57;;;7.23;;
31182;SDS011;17813;0.000;0.000;2024-01-06T08:07:32;10.97;;;7.83;;
31182;SDS011;17813;0.000;0.000;2024-01-06T08:10:03;12.00;;;8.13;;
31182;SDS011;17813;0.000;0.000;2024-01-06T08:12:31;12.07;;;9.00;;
31182;SDS011;17813;0.000;0.000;2024-01-06T08:15:15;10.47;;;9.03;;
31182;SDS011;17813;0.000;0.000;2024-01-06T08:17:47;9.23;;;7.97;;
31182;SDS011;17813;0.000;0.000;2024-01-06T08:20:15;9.63;;;8.57;;
31182;SDS011;17813;0.000;0.000;2024-01-06T08:22:56;9.33;;;8.13;;
31182;SDS011;17813;0.000;0.000;2024-01-06T08:25:41;9.20;;;7.57;;
31182;SDS011;17813;0.000;0.000;2024-01-06T08:28:21;8.10;;;7.30;;
31182;SDS011;17813;0.000;0.000;2024-01-06T08:31:11;8.73;;;7.33;;
31182;SDS011;17813;0.000;0.000;2024-01-06T08:33:39;8.57;;;7.57;;
31182;SDS011;17813;0.000;0.000;2024-01-06T08:36:10;11.30;;;8.00;;
31182;SDS011;17813;0.000;0.000;2024-01-06T08:38:37;12.57;;;9.83;;
31182;SDS011;17813;0.000;0.000;2024-01-06T08:41:16;13.97;;;10.57;;
31182;SDS011;17813;0.000;0.000;2024-01-06T08:44:07;14.83;;;11.47;;
31182;SDS011;17813;0.000;0.000;2024-01-06T08:46:50;14.33;;;11.67;;
31182;SDS011;17813;0.000;0.000;2024-01-06T08:49:33;14.73;;;12.10;;
31182;SDS011;17813;0.000;0.000;2024-01-06T08:52:08;13.43;;;12.00;;
31182;SDS011;17813;0.000;0.000;2024-01-06T08:54:41;15.80;;;11.47;;
31182;SDS011;17813;0.000;0.000;2024-01-06T08:57:12;12.10;;;10.73;;
31182;SDS011;17813;0.000;0.000;2024-01-06T08:59:58;12.90;;;11.27;;
31182;SDS011;17813;0.000;0.000;2024-01-06T09:02:28;12.23;;;10.73;;
31182;SDS011;17813;0.000;0.000;2024-01-06T09:04:58;12.47;;;11.13;;
31182;SDS011;17813;0.000;0.000;2024-01-06T09:07:44;16.77;;;11.60;;
31182;SDS011;17813;0.000;0.000;2024-01-06T09:10:34;14.73;;;11.47;;
31182;SDS011;17813;0.000;0.000;2024-01-06T09:13:17;14.57;;;11.07;;
31182;SDS011;17813;0.000;0.000;2024-01-06T09:15:47;17.33;;;11.13;;
31182;SDS011;17813;0.000;0.000;2024-01-06T09:18:16;12.60;;;10.60;;
31182;SDS011;17813;0.000;0.000;2024-01-06T09:20:58;15.17;;;11.60;;
31182;SDS011;17813;0.000;0.000;2024-01-06T09:23:40;12.10;;;10.10;;
31182;SDS011;17813;0.000;0.000;2024-01-06T09:26:08;12.03;;;10.20;;
31182;SDS011;17813;0.000;0.000;2024-01-06T09:29:00;12.87;;;10.33;;
31182;SDS011;17813;0.000;0.000;2024-01-06T09:31:42;12.30;;;10.27;;
31182;SDS011;17813;0.000;0.000;2024-01-06T09:34:14;11.77;;;9.90;;
31182;SDS011;17813;0.000;0.000;2024-01-06T09:37:08;10.50;;;9.40;;
31182;SDS011;17813;0.000;0.000;2024-01-06T09:39:56;10.40;;;9.30;;
31182;SDS011;17813;0.000;0.000;2024-01-06T09:42:37;11.37;;;9.50;;
31182;SDS011;17813;0.000;0.000;2024-01-06T09:45:14;12.30;;;10.00;;
31182;SDS011;17813;0.000;0.000;2024-01-06T09:48:06;15.20;;;12.70;;
31182;SDS011;17813;0.000;0.000;2024-01-06T09:50:40;13.83;;;10.77;;
31182;SDS011;17813;0.000;0.000;2024-01-06T09:53:33;13.67;;;10.30;;
31182;SDS011;17813;0.000;0.000;2024-01-06T09:56:16;10.73;;;9.40;;
31182;SDS011;17813;0.000;0.000;2024-01-06T09:59:00;11.60;;;9.80;;
31182;SDS011;17813;0.000;0.000;2024-01-06T10:01:46;12.97;;;9.60;;
31182;SDS011;17813;0.000;0.000;2024-01-06T10:04:33;10.97;;;9.47;;
31182;SDS011;17813;0.000;0.000;2024-01-06T10:07:10;12.57;;;9.63;;
31182;SDS011;17813;0.000;0.000;2024-01-06T10:10:10;11.13;;;9.37;;
31182;SDS011;17813;0.000;0.000;2024-01-06T10:12:39;12.73;;;9.50;;
31182;SDS011;17813;0.000;0.000;2024-01-06T10:15:14;13.23;;;10.00;;
31182;SDS011;17813;0.000;0.000;2024-01-06T10:17:57;15.13;;;11.70;;
31182;SDS011;17813;0.000;0.000;2024-01-06T10:20:33;11.83;;;10.53;;
31182;SDS011;17813;0.000;0.000;2024-01-06T10:23:18;12.13;;;10.27;;
31182;SDS011;17813;0.000;0.000;2024-01-06T10:25:48;11.63;;;9.90;;
31182;SDS011;17813;0.000;0.000;2024-01-06T10:28:36;11.63;;;10.40;;
31182;SDS011;17813;0.000;0.000;2024-01-06T10:31:29;11.40;;;9.50;;
31182;SDS011;17813;0.000;0.000;2024-01-06T10:34:14;12.10;;;9.83;;
31182;SDS011;17813;0.000;0.000;2024-01-06T10:37:05;11.83;;;10.23;;
31182;SDS011;17813;0.000;0.000;2024-01-06T10:43:06;13.33;;;10.60;;
31182;SDS011;17813;0.000;0.000;2024-01-06T10:45:41;15.13;;;11.37;;
31182;SDS011;17813;0.000;0.000;2024-01-06T10:48:26;11.57;;;10.37;;
31182;SDS011;17813;0.000;0.000;2024-01-06T10:51:03;12.00;;;10.67;;
31182;SDS011;17813;0.000;0.000;2024-01-06T10:53:57;12.07;;;10.77;;
31182;SDS011;17813;0.000;0.000;2024-01-06T10:56:45;13.33;;;9.87;;
31182;SDS011;17813;0.000;0.000;2024-01-06T10:59:28;10.90;;;9.57;;
31182;SDS011;17813;0.000;0.000;2024-01-06T11:02:21;10.37;;;9.20;;
31182;SDS011;17813;0.000;0.000;2024-01-06T11:05:06;11.97;;;9.03;;
31182;SDS011;17813;0.000;0.000;2024-01-06T11:07:37;12.87;;;9.83;;
31182;SDS011;17813;0.000;0.000;2024-01-06T11:10:10;11.10;;;8.70;;
31182;SDS011;17813;0.000;0.000;2024-01-06T11:12:43;11.37;;;8.87;;
31182;SDS011;17813;0.000;0.000;2024-01-06T11:21:33;10.67;;;9.37;;
31182;SDS011;17813;0.000;0.000;2024-01-06T11:24:14;10.00;;;9.00;;
31182;SDS011;17813;0.000;0.000;2024-01-06T11:27:07;10.33;;;9.07;;
31182;SDS011;17813;0.000;0.000;2024-01-06T11:30:04;11.60;;;9.87;;
31182;SDS011;17813;0.000;0.000;2024-01-06T11:33:02;10.27;;;9.17;;
31182;SDS011;17813;0.000;0.000;2024-01-06T11:36:00;11.57;;;9.97;;
31182;SDS011;17813;0.000;0.000;2024-01-06T11:38:54;13.03;;;10.77;;
31182;SDS011;17813;0.000;0.000;2024-01-06T11:41:45;15.10;;;11.80;;
31182;SDS011;17813;0.000;0.000;2024-01-06T11:44:44;18.13;;;12.90;;
31182;SDS011;17813;0.000;0.000;2024-01-06T11:47:40;14.33;;;11.13;;
31182;SDS011;17813;0.000;0.000;2024-01-06T11:50:36;12.77;;;11.27;;
31182;SDS011;17813;0.000;0.000;2024-01-06T11:53:34;12.87;;;11.20;;
31182;SDS011;17813;0.000;0.000;2024-01-06T11:56:26;13.27;;;11.43;;
31182;SDS011;17813;0.000;0.000;2024-01-06T11:59:05;12.13;;;10.53;;
31182;SDS011;17813;0.000;0.000;2024-01-06T12:01:36;11.43;;;10.23;;
31182;SDS011;17813;0.000;0.000;2024-01-06T12:04:26;12.43;;;10.70;;
31182;SDS011;17813;0.000;0.000;2024-01-06T12:07:25;13.77;;;10.67;;
31182;SDS011;17813;0.000;0.000;2024-01-06T12:10:03;11.87;;;9.97;;
31182;SDS011;17813;0.000;0.000;2024-01-06T12:12:38;11.70;;;10.00;;
31182;SDS011;17813;0.000;0.000;2024-01-06T12:15:53;11.63;;;9.90;;
31182;SDS011;17813;0.000;0.000;2024-01-06T12:18:37;12.57;;;9.80;;
31182;SDS011;17813;0.000;0.000;2024-01-06T12:21:18;10.27;;;9.17;;
31182;SDS011;17813;0.000;0.000;2024-01-06T12:23:53;11.20;;;9.93;;
31182;SDS011;17813;0.000;0.000;2024-01-06T12:26:37;12.67;;;11.30;;
31182;SDS011;17813;0.000;0.000;2024-01-06T12:29:20;12.63;;;11.33;;
31182;SDS011;17813;0.000;0.000;2024-01-06T12:32:06;11.53;;;10.23;;
31182;SDS011;17813;0.000;0.000;2024-01-06T12:34:51;12.30;;;9.83;;
31182;SDS011;17813;0.000;0.000;2024-01-06T12:37:35;13.37;;;10.13;;
31182;SDS011;17813;0.000;0.000;2024-01-06T12:40:04;12.93;;;10.37;;
31182;SDS011;17813;0.000;0.000;2024-01-06T12:43:02;28.73;;;17.90;;
31182;SDS011;17813;0.000;0.000;2024-01-06T12:45:38;101.00;;;60.90;;
31182;SDS011;17813;0.000;0.000;2024-01-06T12:48:26;59.57;;;39.87;;
31182;SDS011;17813;0.000;0.000;2024-01-06T12:50:53;47.57;;;32.37;;
31182;SDS011;17813;0.000;0.000;2024-01-06T12:53:35;46.17;;;28.87;;
31182;SDS011;17813;0.000;0.000;2024-01-06T12:56:03;33.53;;;21.63;;
31182;SDS011;17813;0.000;0.000;2024-01-06T12:58:54;27.73;;;20.23;;
31182;SDS011;17813;0.000;0.000;2024-01-06T13:01:38;30.00;;;19.47;;
31182;SDS011;17813;0.000;0.000;2024-01-06T13:04:09;24.50;;;17.83;;
31182;SDS011;17813;0.000;0.000;2024-01-06T13:06:50;26.63;;;19.10;;
31182;SDS011;17813;0.000;0.000;2024-01-06T13:09:42;16.93;;;13.87;;
31182;SDS011;17813;0.000;0.000;2024-01-06T13:12:39;17.07;;;12.37;;
31182;SDS011;17813;0.000;0.000;2024-01-06T13:15:32;13.20;;;11.13;;
31182;SDS011;17813;0.000;0.000;2024-01-06T13:18:00;13.93;;;10.77;;
31182;SDS011;17813;0.000;0.000;2024-01-06T13:20:44;10.63;;;9.50;;
31182;SDS011;17813;0.000;0.000;2024-01-06T13:23:39;10.40;;;9.27;;
31182;SDS011;17813;0.000;0.000;2024-01-06T13:26:20;9.40;;;8.50;;
31182;SDS011;17813;0.000;0.000;2024-01-06T13:29:10;10.47;;;8.73;;
31182;SDS011;17813;0.000;0.000;2024-01-06T13:31:42;10.90;;;8.93;;
31182;SDS011;17813;0.000;0.000;2024-01-06T13:34:12;10.13;;;9.03;;
31182;SDS011;17813;0.000;0.000;2024-01-06T13:36:40;10.93;;;9.60;;
31182;SDS011;17813;0.000;0.000;2024-01-06T13:39:07;10.07;;;9.07;;
31182;SDS011;17813;0.000;0.000;2024-01-06T13:41:35;10.87;;;9.77;;
31182;SDS011;17813;0.000;0.000;2024-01-06T13:44:19;12.17;;;9.60;;
31182;SDS011;17813;0.000;0.000;2024-01-06T13:47:03;11.00;;;9.90;;
31182;SDS011;17813;0.000;0.000;2024-01-06T13:49:47;11.23;;;9.73;;
31182;SDS011;17813;0.000;0.000;2024-01-06T13:52:31;11.73;;;10.20;;
31182;SDS011;17813;0.000;0.000;2024-01-06T13:55:00;12.10;;;10.50;;
31182;SDS011;17813;0.000;0.000;2024-01-06T13:57:27;11.43;;;10.30;;
31182;SDS011;17813;0.000;0.000;2024-01-06T14:00:10;12.63;;;11.00;;
31182;SDS011;17813;0.000;0.000;2024-01-06T14:03:13;12.63;;;11.33;;
31182;SDS011;17813;0.000;0.000;2024-01-06T14:05:41;13.60;;;11.47;;
31182;SDS011;17813;0.000;0.000;2024-01-06T14:08:24;14.10;;;12.63;;
31182;SDS011;17813;0.000;0.000;2024-01-06T14:11:10;13.23;;;11.93;;
31182;SDS011;17813;0.000;0.000;2024-01-06T14:13:50;13.57;;;11.60;;
31182;SDS011;17813;0.000;0.000;2024-01-06T14:16:20;12.83;;;11.53;;
31182;SDS011;17813;0.000;0.000;2024-01-06T14:18:47;13.87;;;12.03;;
31182;SDS011;17813;0.000;0.000;2024-01-06T14:21:40;13.47;;;11.77;;
31182;SDS011;17813;0.000;0.000;2024-01-06T14:24:18;12.63;;;11.23;;
31182;SDS011;17813;0.000;0.000;2024-01-06T14:27:01;12.77;;;11.27;;
31182;SDS011;17813;0.000;0.000;2024-01-06T14:29:31;13.60;;;11.03;;
31182;SDS011;17813;0.000;0.000;2024-01-06T14:32:02;12.47;;;10.87;;
31182;SDS011;17813;0.000;0.000;2024-01-06T14:34:31;12.40;;;11.10;;
31182;SDS011;17813;0.000;0.000;2024-01-06T14:36:59;12.53;;;11.23;;
31182;SDS011;17813;0.000;0.000;2024-01-06T14:39:30;13.23;;;11.83;;
31182;SDS011;17813;0.000;0.000;2024-01-06T14:42:12;12.87;;;11.50;;
31182;SDS011;17813;0.000;0.000;2024-01-06T14:44:53;13.60;;;11.77;;
31182;SDS011;17813;0.000;0.000;2024-01-06T14:47:38;14.10;;;12.33;;
31182;SDS011;17813;0.000;0.000;2024-01-06T14:50:33;13.43;;;11.77;;
31182;SDS011;17813;0.000;0.000;2024-01-06T14:53:01;13.80;;;11.23;;
31182;SDS011;17813;0.000;0.000;2024-01-06T14:55:28;12.20;;;10.90;;
31182;SDS011;17813;0.000;0.000;2024-01-06T14:58:11;12.53;;;11.03;;
31182;SDS011;17813;0.000;0.000;2024-01-06T15:00:46;13.50;;;11.60;;
31182;SDS011;17813;0.000;0.000;2024-01-06T15:03:15;13.03;;;11.70;;
31182;SDS011;17813;0.000;0.000;2024-01-06T15:05:54;12.27;;;10.97;;
31182;SDS011;17813;0.000;0.000;2024-01-06T15:08:23;13.20;;;11.40;;
31182;SDS011;17813;0.000;0.000;2024-01-06T15:11:15;12.23;;;10.40;;
31182;SDS011;17813;0.000;0.000;2024-01-06T15:13:47;14.17;;;12.33;;
31182;SDS011;17813;0.000;0.000;2024-01-06T15:16:26;13.77;;;12.07;;
31182;SDS011;17813;0.000;0.000;2024-01-06T15:18:53;13.50;;;12.10;;
31182;SDS011;17813;0.000;0.000;2024-01-06T15:21:34;16.90;;;13.37;;
31182;SDS011;17813;0.000;0.000;2024-01-06T15:24:15;16.27;;;13.93;;
31182;SDS011;17813;0.000;0.000;2024-01-06T15:26:54;17.90;;;13.90;;
31182;SDS011;17813;0.000;0.000;2024-01-06T15:29:34;14.30;;;12.37;;
31182;SDS011;17813;0.000;0.000;2024-01-06T15:32:12;14.87;;;11.20;;
31182;SDS011;17813;0.000;0.000;2024-01-06T15:34:54;12.47;;;10.20;;
31182;SDS011;17813;0.000;0.000;2024-01-06T15:37:24;14.30;;;9.83;;
31182;SDS011;17813;0.000;0.000;2024-01-06T15:39:56;13.57;;;9.43;;
31182;SDS011;17813;0.000;0.000;2024-01-06T15:42:36;10.87;;;9.73;;
31182;SDS011;17813;0.000;0.000;2024-01-06T15:45:32;11.37;;;10.13;;
31182;SDS011;17813;0.000;0.000;2024-01-06T15:48:00;13.17;;;11.20;;
31182;SDS011;17813;0.000;0.000;2024-01-06T15:50:47;13.97;;;11.10;;
31182;SDS011;17813;0.000;0.000;2024-01-06T15:53:33;11.97;;;9.37;;
31182;SDS011;17813;0.000;0.000;2024-01-06T15:56:01;19.40;;;14.97;;
31182;SDS011;17813;0.000;0.000;2024-01-06T15:58:28;15.30;;;13.47;;
31182;SDS011;17813;0.000;0.000;2024-01-06T16:00:59;10.57;;;9.23;;
31182;SDS011;17813;0.000;0.000;2024-01-06T16:03:45;11.90;;;9.67;;
31182;SDS011;17813;0.000;0.000;2024-01-06T16:06:35;12.20;;;9.07;;
31182;SDS011;17813;0.000;0.000;2024-01-06T16:09:20;13.03;;;11.53;;
31182;SDS011;17813;0.000;0.000;2024-01-06T16:12:15;14.60;;;12.27;;